createdAt,value
2022-07-31T00:00:44.209Z,19.08
2022-07-31T00:03:12.767Z,19.06
2022-07-31T00:05:41.925Z,19.05
2022-07-31T00:08:10.533Z,19.03
2022-07-31T00:10:40.098Z,19.04
2022-07-31T00:13:10.415Z,19.06
2022-07-31T00:15:38.404Z,19.11
2022-07-31T00:18:06.319Z,19.05
2022-07-31T00:20:34.259Z,18.97
2022-07-31T00:23:02.304Z,18.94
2022-07-31T00:25:30.742Z,18.93
2022-07-31T00:27:58.807Z,18.94
2022-07-31T00:30:27.984Z,18.92
2022-07-31T00:32:56.133Z,18.88
2022-07-31T00:35:24.263Z,18.85
2022-07-31T00:37:54.785Z,18.89
2022-07-31T00:40:30.269Z,18.85
2022-07-31T00:42:58.134Z,18.87
2022-07-31T00:45:26.012Z,18.88
2022-07-31T00:47:58.642Z,18.90
2022-07-31T00:50:26.519Z,18.88
2022-07-31T00:52:55.207Z,18.85
2022-07-31T00:55:23.709Z,18.83
2022-07-31T00:57:51.938Z,18.85
2022-07-31T01:00:19.923Z,18.81
2022-07-31T01:02:50.299Z,18.87
2022-07-31T01:05:19.781Z,18.85
2022-07-31T01:07:48.896Z,18.84
2022-07-31T01:10:26.927Z,18.87
2022-07-31T01:13:00.233Z,18.91
2022-07-31T01:15:29.951Z,18.93
2022-07-31T01:17:59.506Z,18.90
2022-07-31T01:20:30.165Z,18.91
2022-07-31T01:23:17.260Z,18.90
2022-07-31T01:26:13.583Z,18.89
2022-07-31T01:29:16.927Z,18.84
2022-07-31T01:31:49.048Z,18.85
2022-07-31T01:34:24.366Z,18.84
2022-07-31T01:37:01.915Z,18.81
2022-07-31T01:39:34.261Z,18.82
2022-07-31T01:42:06.271Z,18.84
2022-07-31T01:44:42.327Z,18.85
2022-07-31T01:47:12.637Z,18.85
2022-07-31T01:49:42.836Z,18.85
2022-07-31T01:52:11.369Z,18.82
2022-07-31T01:54:40.113Z,18.82
2022-07-31T01:57:10.308Z,18.82
2022-07-31T01:59:46.859Z,18.82
2022-07-31T02:02:42.318Z,18.81
2022-07-31T02:05:11.960Z,18.80
2022-07-31T02:07:42.092Z,18.80
2022-07-31T02:10:13.267Z,18.78
2022-07-31T02:12:41.917Z,18.74
2022-07-31T02:15:13.400Z,18.70
2022-07-31T02:17:46.201Z,18.68
2022-07-31T02:20:23.913Z,18.66
2022-07-31T02:22:55.776Z,18.64
2022-07-31T02:25:24.033Z,18.61
2022-07-31T02:27:53.942Z,18.57
2022-07-31T02:30:38.877Z,18.53
2022-07-31T02:33:09.994Z,18.49
2022-07-31T02:35:44.113Z,18.47
2022-07-31T02:38:22.145Z,18.44
2022-07-31T02:40:54.401Z,18.40
2022-07-31T02:43:22.875Z,18.36
2022-07-31T02:45:53.135Z,18.32
2022-07-31T02:48:21.767Z,18.29
2022-07-31T02:50:52.349Z,18.26
2022-07-31T02:53:21.816Z,18.24
2022-07-31T02:55:56.115Z,18.20
2022-07-31T02:58:24.123Z,18.16
2022-07-31T03:01:01.774Z,18.14
2022-07-31T03:03:32.857Z,18.15
2022-07-31T03:06:01.279Z,18.14
2022-07-31T03:08:29.513Z,18.09
2022-07-31T03:11:04.337Z,18.04
2022-07-31T03:13:34.922Z,18.00
2022-07-31T03:16:06.973Z,17.93
2022-07-31T03:18:35.592Z,17.90
2022-07-31T03:21:03.932Z,17.86
2022-07-31T03:23:36.431Z,17.81
2022-07-31T03:26:20.466Z,17.77
2022-07-31T03:28:48.694Z,17.73
2022-07-31T03:31:17.971Z,17.71
2022-07-31T03:33:45.801Z,17.68
2022-07-31T03:36:15.419Z,17.68
2022-07-31T03:38:46.485Z,17.68
2022-07-31T03:41:26.217Z,17.69
2022-07-31T03:43:55.227Z,17.73
2022-07-31T03:46:26.116Z,17.78
2022-07-31T03:48:55.072Z,17.83
2022-07-31T03:51:26.730Z,17.89
2022-07-31T03:53:54.945Z,17.94
2022-07-31T03:56:57.909Z,17.99
2022-07-31T03:59:28.393Z,18.01
2022-07-31T04:02:06.761Z,18.03
2022-07-31T04:04:41.874Z,18.09
2022-07-31T04:07:09.906Z,18.10
2022-07-31T04:09:38.617Z,18.16
2022-07-31T04:12:07.960Z,18.22
2022-07-31T04:14:36.071Z,18.25
2022-07-31T04:17:06.175Z,18.30
2022-07-31T04:19:34.146Z,18.32
2022-07-31T04:22:03.350Z,18.34
2022-07-31T04:24:32.526Z,18.37
2022-07-31T04:27:10.718Z,18.39
2022-07-31T04:29:43.455Z,18.44
2022-07-31T04:32:13.025Z,18.45
2022-07-31T04:34:53.413Z,18.49
2022-07-31T04:37:21.386Z,18.54
2022-07-31T04:39:49.307Z,18.53
2022-07-31T04:42:17.157Z,18.59
2022-07-31T04:44:45.695Z,18.63
2022-07-31T04:47:15.023Z,18.67
2022-07-31T04:49:45.895Z,18.71
2022-07-31T04:52:16.794Z,18.77
2022-07-31T04:54:47.088Z,18.77
2022-07-31T04:57:21.250Z,18.81
2022-07-31T04:59:59.933Z,18.84
2022-07-31T05:02:33.161Z,18.87
2022-07-31T05:05:01.229Z,18.91
2022-07-31T05:07:34.587Z,18.90
2022-07-31T05:10:07.156Z,18.96
2022-07-31T05:12:36.537Z,19.05
2022-07-31T05:15:04.750Z,19.08
2022-07-31T05:17:34.412Z,19.13
2022-07-31T05:20:22.270Z,19.11
2022-07-31T05:23:19.337Z,19.10
2022-07-31T05:26:14.344Z,19.15
2022-07-31T05:28:43.836Z,19.15
2022-07-31T05:31:14.736Z,19.16
2022-07-31T05:33:44.657Z,19.21
2022-07-31T05:36:12.584Z,19.27
2022-07-31T05:38:40.532Z,19.30
2022-07-31T05:41:40.444Z,19.36
2022-07-31T05:44:28.961Z,19.44
2022-07-31T05:49:26.813Z,19.37
2022-07-31T05:51:56.364Z,19.47
2022-07-31T05:54:24.706Z,19.57
2022-07-31T05:57:11.017Z,19.64
2022-07-31T05:59:43.017Z,19.69
2022-07-31T06:02:10.883Z,19.76
2022-07-31T06:05:08.878Z,19.83
2022-07-31T06:07:36.871Z,19.94
2022-07-31T06:10:06.132Z,20.03
2022-07-31T06:12:34.055Z,20.14
2022-07-31T06:15:02.974Z,20.20
2022-07-31T06:17:43.749Z,20.33
2022-07-31T06:20:34.214Z,20.44
2022-07-31T06:23:20.094Z,20.51
2022-07-31T06:25:57.275Z,20.61
2022-07-31T06:28:25.424Z,20.76
2022-07-31T06:31:06.771Z,20.92
2022-07-31T06:33:37.062Z,20.93
2022-07-31T06:36:07.737Z,20.90
2022-07-31T06:38:41.534Z,20.92
2022-07-31T06:41:48.051Z,20.99
2022-07-31T06:44:32.697Z,20.96
2022-07-31T06:47:20.412Z,21.09
2022-07-31T06:49:57.861Z,21.17
2022-07-31T06:52:33.164Z,21.23
2022-07-31T06:55:01.388Z,21.36
2022-07-31T06:57:29.259Z,21.52
2022-07-31T06:59:57.073Z,21.62
2022-07-31T07:02:25.149Z,21.76
2022-07-31T07:05:00.049Z,21.85
2022-07-31T07:07:39.364Z,21.74
2022-07-31T07:10:10.158Z,21.72
2022-07-31T07:12:56.345Z,21.60
2022-07-31T07:15:24.309Z,21.62
2022-07-31T07:17:52.128Z,21.58
2022-07-31T07:20:33.343Z,21.58
2022-07-31T07:23:03.181Z,21.69
2022-07-31T07:25:48.784Z,21.84
2022-07-31T07:28:30.662Z,22.04
2022-07-31T07:31:03.716Z,22.27
2022-07-31T07:33:39.830Z,22.43
2022-07-31T07:36:21.742Z,22.71
2022-07-31T07:38:59.061Z,23.05
2022-07-31T07:41:27.154Z,23.32
2022-07-31T07:43:55.405Z,23.59
2022-07-31T07:46:27.327Z,23.74
2022-07-31T07:48:58.246Z,23.90
2022-07-31T07:51:59.897Z,24.10
2022-07-31T07:54:40.903Z,23.99
2022-07-31T07:57:31.983Z,24.11
2022-07-31T08:00:18.369Z,24.21
2022-07-31T08:03:46.745Z,24.19
2022-07-31T08:05:43.072Z,24.31
2022-07-31T08:08:12.231Z,24.41
2022-07-31T08:10:44.181Z,24.56
2022-07-31T08:13:19.027Z,24.55
2022-07-31T08:16:12.866Z,24.73
2022-07-31T08:18:46.161Z,24.89
2022-07-31T08:21:15.158Z,25.04
2022-07-31T08:23:43.247Z,25.09
2022-07-31T08:26:13.812Z,25.12
2022-07-31T08:28:49.925Z,25.22
2022-07-31T08:31:20.952Z,25.47
2022-07-31T08:34:02.907Z,25.19
2022-07-31T08:36:31.111Z,25.34
2022-07-31T08:38:58.929Z,25.52
2022-07-31T08:41:51.192Z,25.79
2022-07-31T08:44:25.841Z,25.66
2022-07-31T08:46:59.737Z,25.64
2022-07-31T08:49:31.562Z,25.77
2022-07-31T08:52:02.394Z,25.72
2022-07-31T08:54:51.347Z,25.90
2022-07-31T08:57:21.618Z,26.04
2022-07-31T08:59:52.343Z,26.06
2022-07-31T09:02:20.375Z,26.04
2022-07-31T09:05:11.399Z,26.26
2022-07-31T09:07:40.938Z,26.47
2022-07-31T09:10:20.673Z,26.33
2022-07-31T09:12:50.711Z,26.47
2022-07-31T09:15:27.649Z,26.52
2022-07-31T09:17:56.166Z,26.72
2022-07-31T09:20:26.582Z,26.70
2022-07-31T09:23:06.044Z,26.63
2022-07-31T09:25:35.691Z,26.73
2022-07-31T09:28:07.227Z,26.38
2022-07-31T09:30:35.996Z,26.45
2022-07-31T09:33:45.996Z,26.74
2022-07-31T09:36:43.139Z,26.72
2022-07-31T09:39:52.509Z,26.76
2022-07-31T09:42:46.091Z,26.74
2022-07-31T09:45:25.658Z,26.62
2022-07-31T09:48:05.940Z,26.53
2022-07-31T09:50:35.148Z,26.54
2022-07-31T09:53:03.110Z,26.34
2022-07-31T09:55:33.596Z,26.36
2022-07-31T09:58:02.955Z,26.18
2022-07-31T10:00:40.029Z,26.13
2022-07-31T10:03:09.045Z,26.12
2022-07-31T10:05:38.168Z,26.07
2022-07-31T10:08:07.115Z,26.26
2022-07-31T10:10:57.727Z,26.54
2022-07-31T10:13:37.429Z,26.71
2022-07-31T10:16:10.003Z,26.70
2022-07-31T10:19:00.562Z,26.79
2022-07-31T10:21:57.682Z,27.05
2022-07-31T10:24:34.164Z,27.24
2022-07-31T10:27:09.125Z,27.33
2022-07-31T10:29:40.885Z,27.38
2022-07-31T10:32:10.587Z,27.18
2022-07-31T10:34:58.771Z,27.31
2022-07-31T10:37:59.328Z,27.16
2022-07-31T10:41:03.631Z,27.47
2022-07-31T10:43:40.468Z,27.70
2022-07-31T10:46:28.506Z,27.70
2022-07-31T10:49:14.138Z,27.64
2022-07-31T10:52:28.324Z,27.83
2022-07-31T10:55:19.226Z,28.08
2022-07-31T10:58:16.172Z,28.36
2022-07-31T11:00:53.317Z,28.36
2022-07-31T11:03:41.728Z,28.36
2022-07-31T11:06:21.569Z,28.56
2022-07-31T11:08:57.440Z,28.68
2022-07-31T11:11:44.004Z,28.61
2022-07-31T11:14:47.306Z,29.09
2022-07-31T11:18:23.396Z,29.01
2022-07-31T11:20:33.434Z,29.24
2022-07-31T11:23:08.085Z,28.93
2022-07-31T11:25:37.510Z,28.86
2022-07-31T11:28:13.655Z,28.97
2022-07-31T11:30:53.272Z,28.89
2022-07-31T11:33:42.712Z,29.26
2022-07-31T11:36:13.299Z,29.75
2022-07-31T11:38:44.729Z,29.50
2022-07-31T11:41:15.220Z,29.38
2022-07-31T11:43:47.647Z,29.40
2022-07-31T11:46:24.965Z,29.19
2022-07-31T11:48:53.870Z,29.04
2022-07-31T11:51:22.721Z,29.21
2022-07-31T11:53:57.248Z,29.25
2022-07-31T11:56:27.950Z,29.51
2022-07-31T11:58:58.942Z,29.92
2022-07-31T12:01:30.992Z,30.17
2022-07-31T12:04:08.720Z,30.29
2022-07-31T12:06:37.261Z,29.95
2022-07-31T12:09:06.840Z,29.98
2022-07-31T12:11:34.838Z,29.78
2022-07-31T12:14:02.706Z,29.74
2022-07-31T12:16:40.609Z,29.90
2022-07-31T12:19:09.108Z,29.50
2022-07-31T12:21:40.106Z,29.61
2022-07-31T12:24:13.846Z,29.98
2022-07-31T12:26:45.051Z,29.95
2022-07-31T12:29:13.771Z,29.90
2022-07-31T12:31:46.424Z,29.67
2022-07-31T12:34:14.479Z,29.74
2022-07-31T12:36:43.033Z,30.23
2022-07-31T12:39:12.915Z,30.48
2022-07-31T12:41:44.174Z,30.44
2022-07-31T12:44:14.573Z,30.21
2022-07-31T12:46:42.917Z,30.41
2022-07-31T12:49:11.226Z,30.36
2022-07-31T12:51:46.128Z,30.09
2022-07-31T12:54:18.182Z,29.63
2022-07-31T12:56:47.647Z,29.55
2022-07-31T12:59:15.895Z,29.64
2022-07-31T13:01:43.832Z,29.94
2022-07-31T13:04:19.158Z,30.21
2022-07-31T13:06:51.478Z,29.80
2022-07-31T13:09:21.286Z,29.68
2022-07-31T13:11:52.243Z,29.90
2022-07-31T13:14:24.410Z,29.96
2022-07-31T13:16:54.925Z,29.77
2022-07-31T13:19:23.927Z,29.87
2022-07-31T13:21:52.610Z,30.02
2022-07-31T13:24:26.971Z,30.19
2022-07-31T13:26:55.254Z,30.29
2022-07-31T13:29:23.422Z,30.37
2022-07-31T13:31:52.379Z,30.11
2022-07-31T13:34:20.365Z,29.96
2022-07-31T13:36:48.217Z,29.44
2022-07-31T13:39:16.047Z,29.20
2022-07-31T13:41:45.432Z,28.55
2022-07-31T13:44:13.237Z,28.71
2022-07-31T13:46:41.220Z,28.84
2022-07-31T13:49:10.327Z,28.87
2022-07-31T13:51:39.438Z,28.92
2022-07-31T13:54:07.623Z,28.89
2022-07-31T13:56:42.211Z,29.09
2022-07-31T13:59:14.314Z,29.16
2022-07-31T14:02:04.734Z,29.28
2022-07-31T14:04:32.670Z,29.07
2022-07-31T14:07:03.225Z,29.39
2022-07-31T14:09:34.059Z,29.56
2022-07-31T14:12:04.263Z,29.75
2022-07-31T14:14:34.227Z,29.90
2022-07-31T14:17:02.172Z,29.91
2022-07-31T14:19:30.163Z,30.05
2022-07-31T14:22:10.925Z,29.97
2022-07-31T14:24:40.277Z,29.60
2022-07-31T14:27:08.355Z,29.19
2022-07-31T14:29:37.902Z,29.31
2022-07-31T14:32:06.632Z,29.33
2022-07-31T14:34:35.693Z,29.24
2022-07-31T14:37:04.777Z,28.91
2022-07-31T14:39:33.283Z,28.77
2022-07-31T14:42:01.350Z,28.83
2022-07-31T14:44:31.167Z,28.82
2022-07-31T14:47:00.651Z,28.72
2022-07-31T14:50:09.552Z,28.35
2022-07-31T14:52:17.205Z,27.95
2022-07-31T14:54:45.139Z,27.94
2022-07-31T14:57:13.202Z,28.17
2022-07-31T14:59:48.098Z,27.93
2022-07-31T15:02:21.778Z,28.26
2022-07-31T15:04:50.621Z,28.10
2022-07-31T15:07:34.744Z,28.13
2022-07-31T15:10:04.172Z,27.95
2022-07-31T15:12:32.817Z,27.84
2022-07-31T15:15:01.150Z,27.57
2022-07-31T15:17:30.900Z,27.58
2022-07-31T15:19:58.832Z,27.72
2022-07-31T15:22:27.006Z,27.66
2022-07-31T15:24:55.013Z,27.82
2022-07-31T15:27:24.077Z,27.79
2022-07-31T15:30:04.354Z,27.73
2022-07-31T15:32:36.768Z,27.58
2022-07-31T15:35:05.054Z,27.51
2022-07-31T15:37:35.839Z,27.45
2022-07-31T15:40:06.183Z,27.36
2022-07-31T15:42:38.694Z,27.34
2022-07-31T15:45:08.021Z,27.29
2022-07-31T15:47:37.621Z,26.85
2022-07-31T15:50:07.583Z,26.61
2022-07-31T15:52:35.676Z,26.49
2022-07-31T15:55:03.789Z,26.03
2022-07-31T15:57:31.727Z,26.12
2022-07-31T15:59:59.732Z,25.64
2022-07-31T16:02:28.014Z,25.84
2022-07-31T16:05:02.306Z,25.80
2022-07-31T16:08:29.261Z,25.25
2022-07-31T16:10:27.557Z,24.42
2022-07-31T16:12:55.886Z,23.77
2022-07-31T16:15:24.303Z,23.23
2022-07-31T16:17:54.494Z,22.75
2022-07-31T16:20:26.656Z,22.10
2022-07-31T16:22:57.203Z,21.88
2022-07-31T16:25:25.684Z,21.73
2022-07-31T16:27:53.993Z,21.70
2022-07-31T16:30:22.793Z,21.61
2022-07-31T16:32:51.415Z,21.66
2022-07-31T16:35:19.517Z,21.72
2022-07-31T16:37:51.898Z,22.03
2022-07-31T16:40:28.682Z,21.82
2022-07-31T16:43:00.763Z,21.80
2022-07-31T16:45:29.414Z,21.86
2022-07-31T16:47:57.434Z,21.96
2022-07-31T16:50:25.268Z,21.84
2022-07-31T16:52:55.243Z,21.85
2022-07-31T16:55:46.117Z,21.87
2022-07-31T16:58:12.261Z,21.85
2022-07-31T17:00:40.533Z,21.92
2022-07-31T17:03:58.528Z,22.02
2022-07-31T17:05:56.670Z,21.96
2022-07-31T17:08:26.573Z,21.83
2022-07-31T17:10:55.013Z,21.77
2022-07-31T17:13:23.344Z,21.89
2022-07-31T17:15:51.542Z,22.03
2022-07-31T17:18:24.877Z,22.16
2022-07-31T17:20:55.663Z,22.31
2022-07-31T17:23:27.771Z,22.23
2022-07-31T17:26:21.427Z,21.70
2022-07-31T17:28:51.212Z,21.74
2022-07-31T17:31:20.041Z,21.54
2022-07-31T17:33:59.506Z,21.56
2022-07-31T17:36:29.462Z,21.50
2022-07-31T17:38:58.857Z,21.67
2022-07-31T17:41:26.942Z,21.80
2022-07-31T17:43:55.414Z,21.91
2022-07-31T17:46:34.952Z,21.72
2022-07-31T17:49:19.196Z,21.42
2022-07-31T17:51:59.831Z,21.34
2022-07-31T17:54:30.941Z,21.44
2022-07-31T17:56:59.283Z,21.64
2022-07-31T17:59:27.311Z,21.46
2022-07-31T18:01:59.883Z,21.24
2022-07-31T18:04:28.179Z,21.15
2022-07-31T18:06:56.172Z,21.17
2022-07-31T18:09:24.460Z,21.31
2022-07-31T18:11:54.740Z,21.21
2022-07-31T18:14:24.553Z,21.23
2022-07-31T18:16:52.909Z,21.35
2022-07-31T18:19:21.979Z,21.31
2022-07-31T18:21:50.272Z,21.38
2022-07-31T18:24:18.254Z,21.16
2022-07-31T18:26:46.185Z,21.06
2022-07-31T18:29:16.912Z,21.12
2022-07-31T18:31:45.093Z,21.20
2022-07-31T18:34:13.087Z,21.12
2022-07-31T18:36:41.177Z,21.06
2022-07-31T18:39:09.106Z,21.05
2022-07-31T18:41:37.214Z,20.96
2022-07-31T18:44:05.366Z,20.94
2022-07-31T18:46:34.717Z,21.05
2022-07-31T18:49:02.828Z,21.04
2022-07-31T18:51:31.114Z,21.07
2022-07-31T18:53:59.105Z,21.08
2022-07-31T18:56:27.356Z,20.92
2022-07-31T18:58:55.688Z,21.02
2022-07-31T19:01:24.410Z,21.02
2022-07-31T19:03:55.077Z,20.93
2022-07-31T19:06:23.706Z,20.85
2022-07-31T19:08:52.193Z,20.90
2022-07-31T19:11:20.295Z,20.92
2022-07-31T19:13:48.565Z,20.91
2022-07-31T19:16:17.666Z,20.80
2022-07-31T19:18:45.907Z,20.85
2022-07-31T19:21:23.741Z,20.81
2022-07-31T19:24:09.189Z,20.86
2022-07-31T19:26:37.528Z,20.90
2022-07-31T19:29:05.870Z,20.91
2022-07-31T19:31:33.916Z,20.92
2022-07-31T19:34:01.804Z,20.92
2022-07-31T19:36:31.311Z,20.92
2022-07-31T19:38:59.517Z,20.94
2022-07-31T19:41:27.337Z,20.94
2022-07-31T19:43:55.227Z,20.90
2022-07-31T19:46:23.255Z,20.89
2022-07-31T19:48:51.194Z,20.86
2022-07-31T19:51:19.459Z,20.83
2022-07-31T19:53:48.726Z,20.79
2022-07-31T19:56:20.821Z,20.74
2022-07-31T19:58:49.588Z,20.66
2022-07-31T20:01:20.119Z,20.62
2022-07-31T20:03:48.613Z,20.58
2022-07-31T20:06:16.892Z,20.57
2022-07-31T20:08:44.946Z,20.56
2022-07-31T20:11:14.308Z,20.56
2022-07-31T20:13:42.252Z,20.48
2022-07-31T20:16:11.259Z,20.50
2022-07-31T20:18:39.521Z,20.47
2022-07-31T20:21:14.390Z,20.43
2022-07-31T20:23:42.587Z,20.41
2022-07-31T20:26:12.596Z,20.30
2022-07-31T20:28:42.587Z,20.26
2022-07-31T20:31:16.291Z,20.26
2022-07-31T20:33:56.966Z,20.31
2022-07-31T20:36:25.620Z,20.29
2022-07-31T20:38:53.526Z,20.20
2022-07-31T20:41:21.739Z,20.24
2022-07-31T20:43:51.405Z,20.26
2022-07-31T20:46:19.455Z,20.13
2022-07-31T20:48:47.465Z,20.17
2022-07-31T20:51:20.286Z,20.16
2022-07-31T20:53:48.384Z,20.16
2022-07-31T20:56:16.622Z,20.12
2022-07-31T20:58:50.887Z,20.12
2022-07-31T21:01:21.267Z,20.15
2022-07-31T21:03:49.976Z,20.17
2022-07-31T21:06:17.892Z,20.16
2022-07-31T21:08:46.727Z,20.15
2022-07-31T21:11:14.582Z,20.08
2022-07-31T21:13:43.190Z,20.11
2022-07-31T21:16:11.060Z,20.15
2022-07-31T21:18:43.333Z,20.14
2022-07-31T21:21:11.663Z,20.11
2022-07-31T21:23:39.682Z,20.15
2022-07-31T21:26:08.724Z,20.15
2022-07-31T21:28:36.989Z,20.12
2022-07-31T21:31:05.434Z,20.13
2022-07-31T21:33:34.015Z,20.15
2022-07-31T21:36:05.939Z,20.10
2022-07-31T21:38:36.161Z,20.16
2022-07-31T21:41:04.778Z,20.23
2022-07-31T21:43:44.627Z,20.27
2022-07-31T21:46:23.571Z,20.29
2022-07-31T21:48:52.736Z,20.27
2022-07-31T21:51:22.612Z,20.30
2022-07-31T21:53:50.586Z,20.27
2022-07-31T21:56:18.518Z,20.27
2022-07-31T21:58:46.627Z,20.24
2022-07-31T22:01:15.236Z,20.26
2022-07-31T22:03:43.804Z,20.23
2022-07-31T22:06:29.186Z,20.23
2022-07-31T22:08:58.383Z,20.26
2022-07-31T22:11:26.697Z,20.24
2022-07-31T22:13:54.908Z,20.22
2022-07-31T22:16:23.454Z,20.25
2022-07-31T22:18:51.805Z,20.24
2022-07-31T22:21:20.547Z,20.23
2022-07-31T22:23:49.359Z,20.24
2022-07-31T22:26:19.293Z,20.24
2022-07-31T22:28:48.172Z,20.16
2022-07-31T22:31:16.623Z,20.17
2022-07-31T22:33:44.931Z,20.13
2022-07-31T22:36:13.273Z,20.14
2022-07-31T22:38:44.538Z,20.14
2022-07-31T22:41:13.383Z,20.17
2022-07-31T22:44:11.541Z,20.13
2022-07-31T22:46:32.843Z,20.06
2022-07-31T22:49:02.940Z,20.03
2022-07-31T22:51:33.494Z,20.02
2022-07-31T22:54:03.420Z,19.99
2022-07-31T22:56:31.346Z,19.94
2022-07-31T22:59:00.623Z,19.95
2022-07-31T23:01:28.541Z,19.97
2022-07-31T23:03:56.381Z,19.98
2022-07-31T23:06:30.942Z,20.05
2022-07-31T23:09:01.607Z,19.94
2022-07-31T23:11:30.083Z,19.97
2022-07-31T23:13:58.548Z,19.99
2022-07-31T23:16:28.008Z,19.92
2022-07-31T23:18:56.605Z,19.96
2022-07-31T23:21:24.864Z,19.88
2022-07-31T23:23:53.381Z,19.88
2022-07-31T23:26:23.955Z,19.87
2022-07-31T23:28:52.961Z,19.84
2022-07-31T23:31:21.645Z,19.84
2022-07-31T23:33:52.709Z,19.87
2022-07-31T23:36:20.756Z,19.79
2022-07-31T23:38:49.064Z,19.82
2022-07-31T23:41:37.101Z,19.80
2022-07-31T23:44:04.526Z,19.84
2022-07-31T23:46:32.760Z,19.80
2022-07-31T23:49:02.112Z,19.78
2022-07-31T23:51:30.049Z,19.89
2022-07-31T23:53:58.172Z,19.98
2022-07-31T23:56:27.741Z,20.04
2022-07-31T23:58:56.163Z,20.15
